Time;durP1;ratioP1;P1;durP2;ratioP2;P2;SDS_P1;SDS_P2;PMS_P1;PMS_P2;Temp;Humidity;BMP_temperature;BMP_pressure;BME280_temperature;BME280_humidity;BME280_pressure;Samples;Min_cycle;Max_cycle;Signal;HPM_P1;HPM_P2
2021/11/26 00:01:11;;;;;;;30.70;19.60;;;7.70;99.90;;;;;;5072643;28;20464;-50
2021/11/26 00:03:38;;;;;;;37.85;21.30;;;7.80;99.90;;;;;;5075184;28;20021;-51
2021/11/26 00:06:04;;;;;;;28.50;20.13;;;7.90;99.90;;;;;;5076134;28;20155;-50
2021/11/26 00:08:30;;;;;;;26.60;14.93;;;7.90;99.90;;;;;;5076120;28;20032;-50
2021/11/26 00:10:56;;;;;;;30.02;20.27;;;7.90;99.90;;;;;;5076394;28;20517;-50
2021/11/26 00:13:28;;;;;;;33.03;20.08;;;7.90;99.90;;;;;;5075876;28;20040;-50
2021/11/26 00:15:58;;;;;;;22.73;15.02;;;7.80;99.90;;;;;;5076201;28;20033;-50
2021/11/26 00:18:24;;;;;;;28.92;18.02;;;7.70;99.90;;;;;;5074001;28;20102;-49
2021/11/26 00:20:50;;;;;;;36.70;20.35;;;7.80;99.90;;;;;;5075794;28;20043;-50
2021/11/26 00:23:16;;;;;;;32.47;19.45;;;7.90;99.90;;;;;;5075931;28;20388;-50
2021/11/26 00:25:42;;;;;;;26.38;14.68;;;7.90;99.90;;;;;;5075706;28;20041;-50
2021/11/26 00:28:08;;;;;;;32.67;20.63;;;7.90;99.90;;;;;;5075982;28;20051;-50
2021/11/26 00:30:34;;;;;;;36.10;22.08;;;8.10;99.90;;;;;;5040017;28;20439;-50
2021/11/26 00:33:01;;;;;;;31.02;20.65;;;8.20;99.90;;;;;;5075914;28;20036;-50
2021/11/26 00:35:27;;;;;;;33.65;20.63;;;8.30;99.90;;;;;;5075633;28;20074;-50
2021/11/26 00:37:53;;;;;;;30.27;20.17;;;8.40;99.90;;;;;;5075719;28;20095;-51
2021/11/26 00:40:18;;;;;;;28.75;19.70;;;8.50;99.90;;;;;;5039900;28;20044;-50
2021/11/26 00:42:44;;;;;;;30.88;19.63;;;8.50;99.90;;;;;;5075462;28;20535;-50
2021/11/26 00:45:12;;;;;;;30.10;19.88;;;8.60;99.90;;;;;;5075713;28;20107;-50
2021/11/26 00:47:39;;;;;;;29.00;19.23;;;8.60;99.90;;;;;;5074940;28;20082;-51
2021/11/26 00:50:06;;;;;;;26.33;18.00;;;8.60;99.90;;;;;;5075387;28;20052;-50
2021/11/26 00:52:32;;;;;;;30.25;19.45;;;8.60;99.90;;;;;;5075170;28;20047;-50
2021/11/26 00:54:58;;;;;;;27.60;18.48;;;8.70;99.90;;;;;;5075389;28;20032;-50
2021/11/26 00:57:24;;;;;;;27.52;19.75;;;8.80;99.90;;;;;;5075301;28;20488;-51
2021/11/26 00:59:49;;;;;;;30.33;19.65;;;8.80;99.90;;;;;;5039504;28;20059;-51
2021/11/26 01:02:15;;;;;;;30.08;19.02;;;8.80;99.90;;;;;;5073165;28;20480;-51
2021/11/26 01:04:42;;;;;;;29.27;19.02;;;8.90;99.90;;;;;;5075021;28;20094;-50
2021/11/26 01:07:08;;;;;;;29.95;19.20;;;8.90;99.90;;;;;;5075313;28;20038;-51
2021/11/26 01:09:34;;;;;;;28.40;18.85;;;8.90;99.90;;;;;;5072845;28;20119;-50
2021/11/26 01:11:59;;;;;;;31.20;20.05;;;9.00;99.90;;;;;;5075266;28;20028;-50
2021/11/26 01:14:26;;;;;;;31.88;19.02;;;8.90;99.90;;;;;;5072610;28;20114;-50
2021/11/26 01:16:53;;;;;;;23.17;14.50;;;9.00;99.90;;;;;;5074792;28;20024;-50
2021/11/26 01:19:19;;;;;;;23.25;16.00;;;9.00;99.90;;;;;;5089774;28;20040;-50
2021/11/26 01:21:45;;;;;;;29.10;14.57;;;9.00;99.90;;;;;;5074826;28;20078;-50
2021/11/26 01:24:10;;;;;;;22.42;14.68;;;8.90;99.90;;;;;;5089660;28;20076;-50
2021/11/26 01:26:36;;;;;;;23.13;14.77;;;8.80;99.90;;;;;;5074648;28;20024;-51
2021/11/26 01:29:02;;;;;;;23.88;13.82;;;8.90;99.90;;;;;;5074984;28;20111;-50
2021/11/26 01:31:28;;;;;;;24.17;13.35;;;8.90;99.90;;;;;;5039270;28;20067;-51
2021/11/26 01:33:55;;;;;;;22.75;12.57;;;8.90;99.90;;;;;;5074607;28;20032;-50
2021/11/26 01:36:21;;;;;;;12.68;8.00;;;8.80;99.90;;;;;;5072359;28;20426;-51
2021/11/26 01:38:47;;;;;;;15.13;10.45;;;8.80;99.90;;;;;;5074481;28;20024;-50
2021/11/26 01:41:13;;;;;;;24.67;13.18;;;8.70;99.90;;;;;;5074517;28;20036;-50
2021/11/26 01:43:39;;;;;;;21.77;13.80;;;8.70;99.90;;;;;;5074404;28;20037;-50
2021/11/26 01:46:09;;;;;;;15.48;8.05;;;8.70;99.90;;;;;;5074554;28;20032;-50
2021/11/26 01:48:38;;;;;;;22.38;14.20;;;8.60;99.90;;;;;;5074572;28;20044;-50
2021/11/26 01:51:04;;;;;;;19.05;12.38;;;8.60;99.90;;;;;;5089052;28;20058;-50
2021/11/26 01:53:31;;;;;;;22.45;15.18;;;8.50;99.90;;;;;;5074300;28;20063;-50
2021/11/26 01:55:57;;;;;;;21.60;12.93;;;8.50;99.90;;;;;;5074357;28;20380;-50
2021/11/26 01:58:23;;;;;;;19.50;11.95;;;8.50;99.90;;;;;;5074138;28;20028;-50
2021/11/26 02:00:51;;;;;;;23.10;13.07;;;8.40;99.90;;;;;;5088671;28;20128;-50
2021/11/26 02:03:17;;;;;;;18.08;9.38;;;8.50;99.90;;;;;;5074172;28;20033;-50
2021/11/26 02:05:43;;;;;;;20.48;13.05;;;8.50;99.90;;;;;;5074005;28;20031;-50
2021/11/26 02:08:10;;;;;;;15.60;8.35;;;8.40;99.90;;;;;;5088617;28;20061;-51
2021/11/26 02:10:37;;;;;;;21.42;12.40;;;8.40;99.90;;;;;;5074011;28;20035;-50
2021/11/26 02:13:04;;;;;;;25.60;16.10;;;8.40;99.90;;;;;;5073916;28;20119;-50
2021/11/26 02:15:30;;;;;;;25.60;15.73;;;8.50;99.90;;;;;;5074023;28;20040;-50
2021/11/26 02:17:59;;;;;;;26.80;16.55;;;8.60;99.90;;;;;;5073911;28;20108;-50
2021/11/26 02:20:29;;;;;;;20.48;12.90;;;8.60;99.90;;;;;;5073026;28;20487;-50
2021/11/26 02:22:57;;;;;;;21.98;13.57;;;8.50;99.90;;;;;;5053242;28;20064;-51
2021/11/26 02:25:25;;;;;;;21.25;14.30;;;8.50;99.90;;;;;;5069884;28;20041;-50
2021/11/26 02:27:52;;;;;;;18.73;10.68;;;8.40;99.90;;;;;;5063929;28;20044;-50
2021/11/26 02:30:19;;;;;;;24.10;16.10;;;8.30;99.90;;;;;;5070038;28;20039;-51
2021/11/26 02:33:05;;;;;;;22.25;16.10;;;8.50;99.90;;;;;;5071395;28;20040;-50
2021/11/26 02:35:33;;;;;;;24.92;16.17;;;8.50;99.90;;;;;;5070706;28;20068;-50
2021/11/26 02:37:59;;;;;;;24.23;14.15;;;8.50;99.90;;;;;;5004326;28;20093;-50
2021/11/26 02:40:27;;;;;;;17.30;10.32;;;8.50;99.90;;;;;;5070947;28;20415;-50
2021/11/26 02:42:54;;;;;;;20.80;12.85;;;8.50;99.90;;;;;;5070845;28;20033;-49
2021/11/26 02:45:21;;;;;;;24.40;14.50;;;8.50;99.90;;;;;;5070842;28;20150;-51
2021/11/26 02:47:48;;;;;;;22.42;15.13;;;8.50;99.90;;;;;;5070786;28;20109;-50
2021/11/26 02:50:16;;;;;;;24.83;14.80;;;8.60;99.90;;;;;;5070637;28;20032;-50
2021/11/26 02:52:42;;;;;;;24.30;15.50;;;8.60;99.90;;;;;;5070727;28;20392;-50
2021/11/26 02:55:11;;;;;;;23.35;12.88;;;8.60;99.90;;;;;;5070546;28;20512;-51
2021/11/26 02:57:38;;;;;;;19.67;11.70;;;8.50;99.90;;;;;;5070670;28;20028;-50
2021/11/26 03:00:05;;;;;;;23.80;14.65;;;8.50;99.90;;;;;;5036930;28;20059;-50
2021/11/26 03:02:31;;;;;;;22.92;15.35;;;8.50;99.90;;;;;;5070518;28;20154;-49
2021/11/26 03:04:57;;;;;;;23.65;14.43;;;8.50;99.90;;;;;;5037122;28;20555;-49
2021/11/26 03:07:23;;;;;;;22.42;14.88;;;8.60;99.90;;;;;;5051174;28;20044;-51
2021/11/26 03:09:49;;;;;;;19.17;13.18;;;8.60;99.90;;;;;;5070652;28;20048;-50
2021/11/26 03:12:15;;;;;;;23.83;14.93;;;8.50;99.90;;;;;;5072566;28;20514;-50
2021/11/26 03:14:40;;;;;;;19.38;13.85;;;8.50;99.90;;;;;;5070519;28;20060;-50
2021/11/26 03:17:06;;;;;;;25.02;13.30;;;8.50;99.90;;;;;;5036918;28;20039;-50
2021/11/26 03:19:32;;;;;;;20.48;13.52;;;8.50;99.90;;;;;;5072781;28;20024;-50
2021/11/26 03:21:58;;;;;;;21.23;14.07;;;8.50;99.90;;;;;;5072605;28;20503;-50
2021/11/26 03:24:24;;;;;;;20.70;13.48;;;8.50;99.90;;;;;;5072556;28;20082;-50
2021/11/26 03:26:49;;;;;;;17.90;11.73;;;8.50;99.90;;;;;;5072457;28;20036;-50
2021/11/26 03:29:16;;;;;;;20.33;13.65;;;8.50;99.90;;;;;;5070420;28;20041;-51
2021/11/26 03:31:41;;;;;;;19.27;12.10;;;8.40;99.90;;;;;;5072589;28;20024;-50
2021/11/26 03:34:08;;;;;;;18.55;11.93;;;8.40;99.90;;;;;;5087359;28;20051;-49
2021/11/26 03:36:34;;;;;;;22.70;12.60;;;8.40;99.90;;;;;;5071771;28;20020;-50
2021/11/26 03:39:00;;;;;;;18.48;12.55;;;8.40;99.90;;;;;;5072159;28;20107;-50
2021/11/26 03:41:26;;;;;;;17.73;12.40;;;8.40;99.90;;;;;;5072687;28;20021;-50
2021/11/26 03:43:52;;;;;;;21.15;12.10;;;8.40;99.90;;;;;;5070302;28;20035;-50
2021/11/26 03:46:19;;;;;;;17.98;11.88;;;8.40;99.90;;;;;;5071046;28;20032;-51
2021/11/26 03:48:46;;;;;;;24.08;11.75;;;8.40;99.90;;;;;;5072271;28;20545;-50
2021/11/26 03:51:12;;;;;;;21.35;13.70;;;8.40;99.90;;;;;;5087077;28;20365;-51
2021/11/26 03:53:38;;;;;;;21.98;14.35;;;8.40;99.90;;;;;;5072430;28;20035;-50
2021/11/26 03:56:04;;;;;;;18.83;13.07;;;8.50;99.90;;;;;;5072513;28;20029;-50
2021/11/26 03:58:30;;;;;;;20.17;13.73;;;8.40;99.90;;;;;;5087034;28;20044;-50
2021/11/26 04:00:56;;;;;;;21.95;13.50;;;8.50;99.90;;;;;;5072438;28;20077;-49
2021/11/26 04:03:22;;;;;;;15.98;11.35;;;8.50;99.90;;;;;;5072227;28;20451;-50
2021/11/26 04:05:48;;;;;;;21.70;13.55;;;8.40;99.90;;;;;;5072246;28;20028;-49
2021/11/26 04:08:14;;;;;;;22.30;12.55;;;8.30;99.90;;;;;;5072324;28;20059;-50
2021/11/26 04:10:40;;;;;;;18.42;12.75;;;8.30;99.90;;;;;;5036576;28;20579;-49
2021/11/26 04:13:08;;;;;;;19.50;12.20;;;8.40;99.90;;;;;;5071990;28;20063;-50
2021/11/26 04:15:37;;;;;;;18.98;11.82;;;8.40;99.90;;;;;;5072046;28;20037;-50
2021/11/26 04:18:05;;;;;;;12.93;8.43;;;8.30;99.90;;;;;;5071919;28;20090;-50
2021/11/26 04:20:31;;;;;;;17.08;10.65;;;8.30;99.90;;;;;;5071940;28;20024;-49
2021/11/26 04:22:58;;;;;;;15.30;9.98;;;8.30;99.90;;;;;;5072066;28;20031;-50
2021/11/26 04:25:24;;;;;;;16.33;11.82;;;8.40;99.90;;;;;;5071868;28;20021;-50
2021/11/26 04:27:50;;;;;;;18.00;10.90;;;8.40;99.90;;;;;;5069851;28;20396;-50
2021/11/26 04:30:18;;;;;;;18.02;12.43;;;8.40;99.90;;;;;;5086701;28;20037;-50
2021/11/26 04:32:46;;;;;;;18.08;12.30;;;8.50;99.90;;;;;;5071995;28;20472;-50
2021/11/26 04:35:13;;;;;;;19.30;12.90;;;8.50;99.90;;;;;;5071823;28;20384;-50
2021/11/26 04:37:39;;;;;;;15.07;8.13;;;8.50;99.90;;;;;;5071772;28;20107;-49
2021/11/26 04:40:08;;;;;;;15.82;11.23;;;8.50;99.90;;;;;;5071881;28;20028;-51
2021/11/26 04:42:38;;;;;;;14.48;10.38;;;8.50;99.90;;;;;;5069666;28;20450;-50
2021/11/26 04:45:05;;;;;;;15.20;10.70;;;8.50;99.90;;;;;;5071931;28;20074;-50
2021/11/26 04:47:32;;;;;;;17.55;11.98;;;8.50;99.90;;;;;;5072086;28;20032;-50
2021/11/26 04:49:58;;;;;;;17.25;11.95;;;8.50;99.90;;;;;;5075007;28;20540;-50
2021/11/26 04:52:24;;;;;;;13.45;9.30;;;8.50;99.90;;;;;;5075404;28;20099;-50
2021/11/26 04:54:50;;;;;;;18.48;12.77;;;8.40;99.90;;;;;;5075342;28;20039;-50
2021/11/26 04:57:16;;;;;;;18.08;13.57;;;8.40;99.90;;;;;;5075242;28;20387;-50
2021/11/26 04:59:42;;;;;;;16.63;11.85;;;8.40;99.90;;;;;;5075501;28;20020;-50
2021/11/26 05:02:08;;;;;;;16.55;11.38;;;8.50;99.90;;;;;;5072981;28;20028;-50
2021/11/26 05:04:33;;;;;;;17.70;11.75;;;8.40;99.90;;;;;;5087704;28;20476;-51
2021/11/26 05:07:01;;;;;;;15.73;7.28;;;8.40;99.90;;;;;;5074193;28;20048;-49
2021/11/26 05:09:27;;;;;;;16.98;11.43;;;8.30;99.90;;;;;;5074507;28;20032;-50
2021/11/26 05:11:55;;;;;;;13.27;9.38;;;8.40;99.90;;;;;;5072955;28;20048;-50
2021/11/26 05:14:24;;;;;;;11.40;6.88;;;8.40;99.90;;;;;;5071820;28;20385;-50
2021/11/26 05:16:51;;;;;;;16.58;10.25;;;8.30;99.90;;;;;;5065023;28;20039;-51
2021/11/26 05:19:17;;;;;;;14.10;10.75;;;8.40;99.90;;;;;;5069716;28;20024;-51
2021/11/26 05:21:43;;;;;;;12.50;9.10;;;8.50;99.90;;;;;;5036652;28;20025;-51
2021/11/26 05:24:09;;;;;;;7.93;5.75;;;8.40;99.90;;;;;;5065192;28;20365;-50
2021/11/26 05:26:35;;;;;;;16.38;9.73;;;8.40;99.90;;;;;;5074691;28;20028;-50
2021/11/26 05:29:01;;;;;;;14.75;9.48;;;8.50;99.90;;;;;;5089595;28;20040;-51
2021/11/26 05:47:26;;;;;;;13.95;9.52;;;8.40;99.90;;;;;;5057686;28;20453;-52
2021/11/26 05:49:52;;;;;;;14.80;10.63;;;8.90;99.90;;;;;;5058993;28;20439;-51
2021/11/26 05:52:17;;;;;;;13.80;9.60;;;8.80;99.90;;;;;;5055970;28;20064;-51
2021/11/26 05:54:43;;;;;;;9.50;7.32;;;8.80;99.90;;;;;;5060674;28;20029;-52
2021/11/26 05:57:09;;;;;;;7.00;4.88;;;8.70;99.90;;;;;;5054559;28;20094;-51
2021/11/26 05:59:35;;;;;;;14.57;9.43;;;8.60;99.90;;;;;;5046739;28;20061;-51
2021/11/26 06:02:01;;;;;;;16.23;10.43;;;8.60;99.90;;;;;;5061818;28;20041;-51
2021/11/26 06:04:28;;;;;;;10.95;7.88;;;8.60;99.90;;;;;;5012889;28;20454;-53
2021/11/26 06:06:54;;;;;;;9.95;7.32;;;8.60;99.90;;;;;;5047273;28;20095;-54
2021/11/26 06:09:20;;;;;;;15.23;10.55;;;8.60;99.90;;;;;;5073502;28;20404;-54
2021/11/26 06:11:46;;;;;;;11.00;6.65;;;8.60;99.90;;;;;;5043686;28;20026;-54
2021/11/26 06:14:11;;;;;;;14.25;10.00;;;8.60;99.90;;;;;;5044358;28;20468;-51
2021/11/26 06:16:37;;;;;;;19.15;11.80;;;8.60;99.90;;;;;;5042571;28;20040;-50
2021/11/26 06:19:03;;;;;;;9.23;7.15;;;8.70;99.90;;;;;;5045652;28;20721;-54
2021/11/26 06:21:29;;;;;;;8.70;5.90;;;8.70;99.90;;;;;;5054810;28;20060;-51
2021/11/26 06:23:55;;;;;;;14.25;8.93;;;8.70;99.90;;;;;;5071239;28;20404;-52
2021/11/26 06:26:20;;;;;;;13.52;8.30;;;8.60;99.90;;;;;;5057118;28;20047;-50
2021/11/26 06:28:46;;;;;;;13.77;9.82;;;8.60;99.90;;;;;;5058008;28;20464;-52
2021/11/26 06:31:12;;;;;;;12.05;5.50;;;8.60;99.90;;;;;;5042277;28;20052;-53
2021/11/26 06:33:37;;;;;;;13.32;10.55;;;8.60;99.90;;;;;;5036745;28;20864;-53
2021/11/26 06:36:03;;;;;;;10.95;6.10;;;8.70;99.90;;;;;;5046764;28;20048;-50
2021/11/26 06:38:29;;;;;;;14.07;9.00;;;8.70;99.90;;;;;;5047218;28;20025;-50
2021/11/26 06:40:55;;;;;;;10.50;5.47;;;8.70;99.90;;;;;;5068797;28;20041;-52
2021/11/26 06:43:21;;;;;;;11.70;7.22;;;8.70;99.90;;;;;;5074650;28;20048;-49
2021/11/26 06:45:46;;;;;;;9.43;6.78;;;8.70;99.90;;;;;;5042766;28;20053;-51
2021/11/26 06:48:13;;;;;;;15.90;10.40;;;8.80;99.90;;;;;;5030194;28;20068;-52
2021/11/26 06:50:39;;;;;;;14.30;9.02;;;8.80;99.90;;;;;;5028970;28;20542;-52
2021/11/26 06:53:05;;;;;;;9.82;6.35;;;8.90;99.90;;;;;;5033759;28;20799;-50
2021/11/26 06:55:32;;;;;;;8.60;5.85;;;8.90;99.90;;;;;;5029236;28;20068;-50
2021/11/26 06:57:59;;;;;;;16.98;9.52;;;8.90;99.90;;;;;;5028999;28;20463;-51
2021/11/26 07:00:25;;;;;;;14.18;8.98;;;9.00;99.90;;;;;;5030317;28;20048;-50
2021/11/26 07:02:51;;;;;;;10.80;6.55;;;9.00;99.90;;;;;;5030416;28;20034;-49
2021/11/26 07:05:17;;;;;;;10.82;6.57;;;9.00;99.90;;;;;;5029703;28;20484;-50
2021/11/26 07:07:43;;;;;;;12.77;8.50;;;9.00;99.90;;;;;;5030012;28;20112;-50
2021/11/26 07:10:10;;;;;;;20.80;9.60;;;9.00;99.90;;;;;;5028745;28;20118;-51
2021/11/26 07:12:36;;;;;;;13.05;8.00;;;9.00;99.90;;;;;;5047291;28;20462;-52
2021/11/26 07:15:04;;;;;;;12.95;7.88;;;9.00;99.90;;;;;;5029264;28;20091;-49
2021/11/26 07:17:30;;;;;;;9.02;5.60;;;8.80;99.90;;;;;;5026497;28;20049;-51
2021/11/26 07:19:56;;;;;;;12.90;6.38;;;8.80;99.90;;;;;;5026748;28;20041;-49
2021/11/26 07:22:21;;;;;;;11.63;7.85;;;8.70;99.90;;;;;;5046881;28;20038;-49
2021/11/26 07:24:47;;;;;;;11.93;7.65;;;8.70;99.90;;;;;;5032292;28;20036;-49
2021/11/26 07:27:14;;;;;;;26.85;14.27;;;8.70;99.90;;;;;;5040877;28;21294;-51
2021/11/26 07:29:40;;;;;;;10.70;6.72;;;8.70;99.90;;;;;;5026991;28;20022;-49
2021/11/26 07:32:07;;;;;;;19.77;11.77;;;8.70;99.90;;;;;;5027411;28;20477;-52
2021/11/26 07:34:33;;;;;;;17.63;13.38;;;8.70;99.90;;;;;;5030576;28;20056;-51
2021/11/26 07:36:59;;;;;;;19.38;12.82;;;8.80;99.90;;;;;;5020641;28;20096;-50
2021/11/26 07:39:31;;;;;;;14.77;10.20;;;8.90;99.90;;;;;;5030660;28;20029;-52
2021/11/26 07:41:57;;;;;;;14.85;7.47;;;8.80;99.90;;;;;;4985526;28;20112;-50
2021/11/26 07:44:23;;;;;;;10.95;7.25;;;8.80;99.90;;;;;;4965194;28;20043;-49
2021/11/26 07:46:48;;;;;;;17.00;11.65;;;8.80;99.90;;;;;;4987982;28;20058;-53
2021/11/26 07:49:14;;;;;;;15.70;9.40;;;8.80;99.90;;;;;;4951905;28;20046;-49
2021/11/26 07:51:40;;;;;;;15.80;11.02;;;8.80;99.90;;;;;;4985683;28;20042;-51
2021/11/26 07:54:05;;;;;;;18.08;10.75;;;8.80;99.90;;;;;;4988926;28;20520;-50
2021/11/26 07:56:33;;;;;;;13.55;10.65;;;8.80;99.90;;;;;;4988056;28;20088;-51
2021/11/26 07:58:58;;;;;;;12.00;8.82;;;8.80;99.90;;;;;;4984380;28;20070;-51
2021/11/26 08:01:24;;;;;;;14.48;10.73;;;8.70;99.90;;;;;;4988291;28;20042;-51
2021/11/26 08:03:50;;;;;;;15.32;11.02;;;8.70;99.90;;;;;;4963962;28;20043;-50
2021/11/26 08:06:16;;;;;;;16.38;11.93;;;8.80;99.90;;;;;;4987174;28;20087;-51
2021/11/26 08:08:41;;;;;;;11.15;7.40;;;8.70;99.90;;;;;;4953574;28;20120;-49
2021/11/26 08:11:08;;;;;;;8.57;5.50;;;8.60;99.90;;;;;;4987122;28;20190;-50
2021/11/26 08:13:33;;;;;;;16.35;11.35;;;8.50;99.90;;;;;;5028637;28;20558;-51
2021/11/26 08:15:59;;;;;;;14.98;10.90;;;8.60;99.90;;;;;;5036168;28;20120;-50
2021/11/26 08:18:25;;;;;;;29.10;20.77;;;8.50;99.90;;;;;;5031179;28;20473;-51
2021/11/26 08:20:51;;;;;;;15.93;9.40;;;8.50;99.90;;;;;;5028245;28;20045;-51
2021/11/26 08:23:17;;;;;;;19.13;11.88;;;8.50;99.90;;;;;;5029815;28;20100;-51
2021/11/26 08:25:43;;;;;;;10.88;6.47;;;8.40;99.90;;;;;;5031302;28;20029;-50
2021/11/26 08:28:08;;;;;;;9.48;4.43;;;8.30;99.90;;;;;;5029253;28;20539;-51
2021/11/26 08:30:34;;;;;;;16.95;12.35;;;8.40;99.90;;;;;;5046743;28;20041;-51
2021/11/26 08:33:01;;;;;;;13.95;8.38;;;8.50;99.90;;;;;;4998578;28;20042;-48
2021/11/26 08:35:27;;;;;;;16.00;8.95;;;8.40;99.90;;;;;;5039205;28;20099;-49
2021/11/26 08:37:54;;;;;;;13.25;7.78;;;8.40;99.90;;;;;;5045001;28;20116;-50
2021/11/26 08:40:20;;;;;;;17.35;11.68;;;8.30;99.90;;;;;;5027808;28;20120;-51
2021/11/26 08:42:47;;;;;;;12.13;8.40;;;8.40;99.90;;;;;;5031567;28;20505;-46
2021/11/26 08:45:13;;;;;;;15.40;11.35;;;8.30;99.90;;;;;;5030827;28;20052;-47
2021/11/26 08:47:42;;;;;;;18.45;11.98;;;8.40;99.90;;;;;;5029345;28;20029;-50
2021/11/26 08:50:11;;;;;;;14.82;11.52;;;8.40;99.90;;;;;;5032381;28;20031;-49
2021/11/26 08:52:37;;;;;;;16.38;9.18;;;8.30;99.90;;;;;;5032495;28;20030;-50
2021/11/26 08:55:06;;;;;;;14.25;9.18;;;8.30;99.90;;;;;;5030699;28;20095;-49
2021/11/26 08:57:33;;;;;;;8.88;5.88;;;8.30;99.90;;;;;;4997372;28;20045;-50
2021/11/26 08:59:58;;;;;;;11.60;8.15;;;8.20;99.90;;;;;;5033075;28;20388;-50
2021/11/26 09:02:24;;;;;;;12.35;8.52;;;8.30;99.90;;;;;;5030341;28;20026;-50
2021/11/26 09:04:50;;;;;;;14.60;8.63;;;8.30;99.90;;;;;;4997074;28;20036;-50
2021/11/26 09:07:16;;;;;;;12.57;8.57;;;8.30;99.90;;;;;;5028326;28;20056;-50
2021/11/26 09:09:42;;;;;;;17.90;10.45;;;8.40;99.90;;;;;;5044761;28;20116;-50
2021/11/26 09:12:08;;;;;;;14.82;10.95;;;8.40;99.90;;;;;;5029878;28;20115;-51
2021/11/26 09:14:34;;;;;;;15.20;9.50;;;8.40;99.90;;;;;;5030816;28;20435;-49
2021/11/26 09:17:00;;;;;;;11.85;7.88;;;8.40;99.90;;;;;;5031180;28;20102;-50
2021/11/26 09:19:26;;;;;;;12.57;8.60;;;8.40;99.90;;;;;;5031796;28;20026;-49
2021/11/26 09:21:51;;;;;;;12.00;8.63;;;8.50;99.90;;;;;;5031575;28;20369;-50
2021/11/26 09:24:17;;;;;;;16.70;8.90;;;8.50;99.90;;;;;;5031475;28;20033;-50
2021/11/26 09:26:43;;;;;;;18.05;13.10;;;8.50;99.90;;;;;;5031310;28;20022;-50
2021/11/26 09:29:09;;;;;;;22.40;16.13;;;8.60;99.90;;;;;;5030894;28;20496;-50
2021/11/26 09:31:35;;;;;;;22.25;14.75;;;8.70;99.90;;;;;;5030496;28;20026;-50
2021/11/26 09:34:02;;;;;;;17.08;11.00;;;8.60;99.90;;;;;;5029545;28;20055;-54
2021/11/26 09:36:28;;;;;;;19.45;12.27;;;8.60;99.90;;;;;;5030435;28;20042;-50
2021/11/26 09:38:55;;;;;;;14.70;11.05;;;8.60;99.90;;;;;;5029089;28;20396;-50
2021/11/26 09:41:21;;;;;;;21.13;14.38;;;8.60;99.90;;;;;;5045710;28;20037;-50
2021/11/26 09:43:49;;;;;;;24.13;16.23;;;8.80;99.90;;;;;;5027041;28;20196;-49
2021/11/26 09:46:17;;;;;;;18.15;12.55;;;8.80;99.90;;;;;;5026108;28;20054;-61
2021/11/26 09:48:43;;;;;;;22.13;13.65;;;8.80;99.90;;;;;;5024063;28;20469;-50
2021/11/26 09:51:11;;;;;;;18.30;11.27;;;8.70;99.90;;;;;;4995921;28;20045;-50
2021/11/26 09:53:37;;;;;;;22.08;14.77;;;8.80;99.90;;;;;;5028736;28;20156;-49
2021/11/26 09:56:05;;;;;;;26.20;15.95;;;8.80;99.90;;;;;;5028745;28;20396;-47
2021/11/26 09:58:34;;;;;;;29.13;15.30;;;8.80;99.90;;;;;;5012230;28;20701;-49
2021/11/26 10:01:04;;;;;;;21.90;16.05;;;8.90;99.90;;;;;;5028746;28;20492;-49
2021/11/26 10:03:50;;;;;;;14.38;10.48;;;8.90;99.90;;;;;;5028796;28;20033;-49
2021/11/26 10:06:26;;;;;;;17.42;11.48;;;8.90;99.90;;;;;;5028781;28;20076;-49
2021/11/26 10:09:05;;;;;;;18.55;11.88;;;9.00;99.90;;;;;;5028718;28;20165;-49
2021/11/26 10:11:37;;;;;;;15.63;10.77;;;9.00;99.90;;;;;;5028794;28;20040;-49
2021/11/26 10:14:17;;;;;;;14.65;10.45;;;9.00;99.90;;;;;;5029291;28;20045;-49
2021/11/26 10:16:48;;;;;;;12.27;8.85;;;9.00;99.90;;;;;;5030815;28;20041;-49
2021/11/26 10:19:15;;;;;;;13.85;10.45;;;9.00;99.90;;;;;;5031211;28;20488;-49
2021/11/26 10:21:42;;;;;;;15.57;8.43;;;9.10;99.90;;;;;;5031171;28;20588;-50
2021/11/26 10:24:16;;;;;;;46.90;25.02;;;9.00;99.90;;;;;;5034862;28;20492;-49
2021/11/26 10:26:51;;;;;;;43.85;32.28;;;9.20;99.90;;;;;;5034927;28;20032;-49
2021/11/26 10:29:28;;;;;;;22.17;15.70;;;9.20;99.90;;;;;;5034862;28;20104;-48
2021/11/26 10:32:12;;;;;;;19.38;9.77;;;9.20;99.90;;;;;;5034674;28;20053;-49
2021/11/26 10:34:40;;;;;;;14.88;10.80;;;9.20;99.90;;;;;;5034479;28;20136;-49
2021/11/26 10:37:22;;;;;;;20.20;14.15;;;9.10;99.90;;;;;;5034650;28;20083;-48
2021/11/26 10:39:49;;;;;;;18.55;13.93;;;9.20;99.90;;;;;;5034513;28;20041;-49
2021/11/26 10:42:28;;;;;;;16.30;11.68;;;9.30;99.90;;;;;;5048923;28;20029;-48
2021/11/26 10:45:04;;;;;;;19.35;13.70;;;9.30;99.90;;;;;;5048846;28;20068;-48
2021/11/26 10:48:15;;;;;;;19.05;13.95;;;9.30;99.90;;;;;;5034381;28;20060;-48
2021/11/26 10:51:08;;;;;;;18.77;13.15;;;9.40;99.90;;;;;;5034246;28;20037;-48
2021/11/26 10:59:05;;;;;;;16.02;10.68;;;9.40;99.90;;;;;;5034395;28;20041;-48
2021/11/26 11:01:43;;;;;;;15.80;12.10;;;9.50;99.90;;;;;;5034415;28;20048;-48
2021/11/26 11:04:17;;;;;;;16.52;10.77;;;9.50;99.90;;;;;;5034258;28;20041;-48
2021/11/26 11:06:43;;;;;;;16.83;11.70;;;9.60;99.90;;;;;;5033914;28;20029;-48
2021/11/26 11:09:11;;;;;;;12.48;8.27;;;9.70;99.90;;;;;;5034116;28;20393;-48
2021/11/26 11:11:50;;;;;;;15.25;11.55;;;9.80;99.90;;;;;;5034206;28;20083;-48
2021/11/26 11:14:19;;;;;;;19.63;14.57;;;9.90;99.90;;;;;;5033862;28;20086;-48
2021/11/26 11:16:53;;;;;;;17.77;11.75;;;10.00;99.90;;;;;;5032770;28;20044;-48
2021/11/26 11:19:20;;;;;;;16.23;11.50;;;9.90;99.90;;;;;;5048258;28;20053;-49
2021/11/26 11:21:48;;;;;;;20.92;11.88;;;9.90;99.90;;;;;;5033857;28;20022;-48
2021/11/26 11:24:16;;;;;;;14.52;10.35;;;10.00;99.90;;;;;;5033409;28;20036;-49
2021/11/26 11:26:48;;;;;;;12.82;7.25;;;10.00;99.90;;;;;;5033590;28;20052;-48
2021/11/26 11:29:15;;;;;;;11.65;7.65;;;9.80;99.90;;;;;;5033311;28;20032;-48
2021/11/26 11:31:43;;;;;;;9.85;6.28;;;9.80;99.90;;;;;;5031459;28;20025;-49
2021/11/26 11:34:11;;;;;;;12.63;6.97;;;9.60;99.90;;;;;;5032442;28;20068;-49
2021/11/26 11:36:40;;;;;;;10.75;6.18;;;9.60;99.90;;;;;;5032802;28;20033;-49
2021/11/26 11:39:06;;;;;;;14.90;11.38;;;9.60;99.90;;;;;;5029475;28;20065;-50
2021/11/26 11:41:49;;;;;;;16.25;10.77;;;9.60;99.90;;;;;;5031204;28;20017;-50
2021/11/26 11:44:23;;;;;;;;;;;9.70;99.90;;;;;;5033120;28;20033;-47
2021/11/26 11:46:49;;;;;;;11.20;7.53;;;9.80;99.90;;;;;;5020801;28;20006;-48
2021/11/26 11:49:23;;;;;;;10.82;7.40;;;9.80;99.90;;;;;;5045553;28;20041;-49
2021/11/26 11:51:49;;;;;;;14.55;11.18;;;9.80;99.90;;;;;;5032375;28;20029;-48
2021/11/26 11:54:15;;;;;;;15.75;8.95;;;9.90;99.90;;;;;;5046751;28;20038;-50
2021/11/26 11:56:47;;;;;;;10.85;7.22;;;9.90;99.90;;;;;;5046855;28;20052;-51
2021/11/26 11:59:30;;;;;;;9.52;5.05;;;9.90;99.90;;;;;;5047305;28;20045;-55
2021/11/26 12:01:56;;;;;;;12.82;8.63;;;9.90;99.90;;;;;;5043860;28;20038;-61
2021/11/26 12:04:22;;;;;;;9.38;6.50;;;9.90;99.90;;;;;;5031965;28;20106;-52
2021/11/26 12:06:51;;;;;;;16.40;9.70;;;9.90;99.90;;;;;;5030047;28;20171;-51
2021/11/26 12:09:30;;;;;;;10.18;6.85;;;10.10;99.90;;;;;;5030410;28;20040;-51
2021/11/26 12:12:08;;;;;;;18.33;11.80;;;10.00;99.90;;;;;;5032576;28;20484;-50
2021/11/26 12:14:54;;;;;;;12.77;8.20;;;10.10;99.90;;;;;;5047121;28;20091;-49
2021/11/26 12:17:33;;;;;;;13.63;8.65;;;10.10;99.90;;;;;;5032395;28;20524;-50
2021/11/26 12:20:02;;;;;;;21.17;11.30;;;10.20;99.90;;;;;;5032753;28;20414;-51
2021/11/26 12:22:38;;;;;;;12.85;9.02;;;10.20;99.90;;;;;;5032232;28;20037;-49
2021/11/26 12:25:16;;;;;;;8.95;6.38;;;10.30;99.90;;;;;;5032458;28;20041;-49
2021/11/26 12:27:41;;;;;;;10.57;7.65;;;10.30;99.90;;;;;;5030926;28;20040;-54
2021/11/26 12:30:26;;;;;;;5.93;4.00;;;10.40;99.90;;;;;;5028794;28;20045;-50
2021/11/26 12:32:51;;;;;;;11.70;7.68;;;10.40;99.90;;;;;;5010430;28;20042;-52
2021/11/26 12:35:17;;;;;;;10.93;8.00;;;10.50;99.90;;;;;;5008019;28;20054;-49
2021/11/26 12:37:45;;;;;;;12.77;5.80;;;10.70;99.90;;;;;;5045420;28;20061;-50
2021/11/26 12:40:14;;;;;;;12.90;7.90;;;10.90;99.90;;;;;;5029456;28;20047;-52
2021/11/26 12:42:41;;;;;;;8.88;6.55;;;11.20;99.90;;;;;;5032150;28;20537;-49
2021/11/26 12:45:12;;;;;;;7.72;5.25;;;11.30;99.90;;;;;;5029812;28;20486;-48
2021/11/26 12:47:55;;;;;;;8.55;6.85;;;11.40;99.90;;;;;;5031517;28;20397;-49
2021/11/26 12:53:12;;;;;;;10.77;7.00;;;11.60;99.90;;;;;;5030797;28;20056;-48
2021/11/26 12:55:56;;;;;;;9.45;6.00;;;11.60;99.90;;;;;;5067390;28;20040;-50
2021/11/26 12:58:23;;;;;;;11.57;7.70;;;11.60;99.90;;;;;;5022922;28;20041;-50
2021/11/26 13:00:56;;;;;;;18.25;8.48;;;11.70;99.90;;;;;;5029043;28;20065;-49
2021/11/26 13:03:23;;;;;;;12.52;9.10;;;11.60;99.90;;;;;;5029001;28;20034;-51
2021/11/26 13:05:57;;;;;;;11.88;6.20;;;11.70;99.90;;;;;;5029164;28;20151;-49
2021/11/26 13:08:23;;;;;;;7.38;5.85;;;11.70;99.90;;;;;;5029157;28;20128;-49